Fall Series IV                                 
                                  Overall Male                                  
                                November 17, 2019                               

For result questions, please e-mail John Garner at raceresults@pprrun.org.

If you have other questions about the race, please send an e-mail to fallseries@pprrun.org

Weather: Mostly sunny, temps in the 40s, light wind.

OPlc GPlc AGPlc AGrp   Bib Name                   Age Sex City                 St Gun     Chip    Pace    NumPrev TeamName                     
   1    1     1 M30-34  38 Brent Bailey            33  M  Colorado Springs     CO 0:47:51 0:47:49 0:06:38    6    Jurasskicked 
   2    2     1 M35-39 626 Vitaly Stepanov         37  M  Colorado Springs     CO 0:47:55 0:47:54 0:06:39    8     
   3    3     1 M25-29 642 Stephen VanGampleare    29  M  Colorado Springs     CO 0:48:28 0:48:27 0:06:44    2    Fossil Fueled 
   4    4     1 M20-24 204 Jarrett Eller           24  M  Monument             CO 0:48:38 0:48:36 0:06:45    1    Tri-Lakes Runners 
   5    5     1 M40-44 328 Marc Johnson            42  M  Monument             CO 0:49:14 0:49:13 0:06:50    11   Tri-Lakes Runners 
   6    6     1 M15-19 222 Alexander Fernandez     19  M  Monument             CO 0:49:30 0:49:29 0:06:52    5    Tri-Lakes Runners 
   7    7     2 M30-34 795 Kyle Anibas             31  M  Colorado Springs     CO 0:50:05 0:50:02 0:06:57    8     
   8    8     1 M45-49 364 Toby Lefere             48  M  Colorado Springs     CO 0:50:07 0:50:06 0:06:58    10    
   9    9     3 M30-34 464 Nick Parton             33  M  Colorado Springs     CO 0:51:05 0:51:04 0:07:06    13   Fossil Fueled 
  10   10     1 M50-54 809 Dan Vega                52  M  Colorado Springs     CO 0:51:21 0:51:20 0:07:08          
  11   11     2 M40-44 299 Keith Henry             42  M  Manitou Springs      CO 0:51:31 0:51:29 0:07:09    2    Storybook Brewery 
  12   12     2 M25-29 488 Seth Polich             26  M  Colorado Springs     CO 0:51:58 0:51:57 0:07:13    2    Tri-Lakes Runners 
  13   13     2 M20-24 620 Grehson Smith           21  M  Colorado Springs     CO 0:52:29 0:52:27 0:07:17    2    Tri-Lakes Runners 
  14   14     3 M40-44 162 Marcus Corbett          42  M  Colorado Springs     CO 0:52:54 0:52:52 0:07:21    19   Fossil Fueled 
  15   15     4 M30-34 689 Jason Brosseau          34  M  Colorado Springs     CO 0:53:12 0:53:10 0:07:23    8     
  16   16     4 M40-44 483 David Philipps          42  M  Colorado Springs     CO 0:53:41 0:53:35 0:07:27    9     
  17   17     2 M35-39 309 Chad Holderbaum         39  M  Colorado Springs     CO 0:53:40 0:53:37 0:07:27    6     
  18   18     3 M25-29 800 Seth Kolosso            25  M  Norfolk              VA 0:53:42 0:53:41 0:07:27          
  19   19     2 M45-49  63 Bryan Beiner            46  M  Colorado Springs     CO 0:53:43 0:53:41 0:07:27    20    
  20   20     3 M35-39 417 Jeffrey Mohrmann        37  M  Colorado Springs     CO 0:54:19 0:54:17 0:07:32    9    Fossil Fueled 

OPlc GPlc AGPlc AGrp   Bib Name                   Age Sex City                 St Gun     Chip    Pace    NumPrev TeamName                     
  21   21     2 M15-19 781 Noah Elliott            17  M  Colorado Springs     CO 0:54:23 0:54:20 0:07:33          
  22   22     3 M15-19 750 Aiden Walker            15  M  Colorado Springs     CO 0:54:22 0:54:20 0:07:33    1     
  23   23     4 M35-39 552 Miguel Sandoval         35  M  Colorado Springs     CO 0:54:25 0:54:22 0:07:33    3     
  25   24     2 M50-54 677 Brett Wilson            51  M  Colorado Springs     CO 0:54:45 0:54:43 0:07:36    76    
  26   25     3 M50-54 696 David Havlick           54  M  Colorado Springs     CO 0:55:45 0:55:42 0:07:44    13   Earth Thinkers 
  27   26     5 M35-39 414 Jason Miranov           36  M  Colorado Springs     CO 0:55:57 0:55:56 0:07:46    3     
  28   27     3 M45-49 635 Wes Thurman             47  M  Colorado Springs     CO 0:56:09 0:56:07 0:07:48    46    
  29   28     6 M35-39 169 Steve Crumpler          37  M  Colorado Springs     CO 0:56:22 0:56:21 0:07:50    13   Jurasskicked 
  32   29     4 M25-29 508 Sean Rimmer             27  M  Colorado Springs     CO 0:56:37 0:56:34 0:07:51    2     
  34   30     5 M40-44 648 Shawn Walker            42  M  Colorado Springs     CO 0:57:31 0:57:27 0:07:59    19    
  35   31     4 M15-19 322 Joe Jardeleza           15  M  Colorado Springs     CO 0:57:39 0:57:36 0:08:00    2     
  36   32     7 M35-39 177 Joel Dagnillo           37  M  Colorado Springs     CO 0:58:34 0:58:30 0:08:08    6     
  37   33     5 M25-29 358 Malcolm Konik           25  M  Colorado Springs     CO 0:58:40 0:58:33 0:08:08    6     
  38   34     4 M50-54 658 Mike Wasson             53  M  Colorado Springs     CO 0:59:03 0:59:00 0:08:12    20    
  39   35     4 M45-49 660 Jay Watts               47  M  Falcon               CO 0:59:23 0:59:20 0:08:14    14    
  40   36     6 M40-44 129 Tom Caughlan            40  M  Colorado Springs     CO 0:59:35 0:59:33 0:08:16    24   Fossil Fueled 
  41   37     5 M50-54 805 Paul Doyle              50  M  Colorado Springs     CO 0:59:43 0:59:38 0:08:17          
  42   38     6 M50-54 360 David Kuritar           52  M  Colorado Springs     CO 1:00:04 0:59:58 0:08:20    10    
  44   39     7 M50-54 399 Michael McGann          52  M  Colorado Springs     CO 1:01:02 1:00:55 0:08:28    12    
  45   40     6 M25-29 803 Alec Bohn               27  M  Colorado Springs     CO 1:01:15 1:01:01 0:08:28    1    Colorado Mountain Brewery 

OPlc GPlc AGPlc AGrp   Bib Name                   Age Sex City                 St Gun     Chip    Pace    NumPrev TeamName                     
  46   41     7 M25-29 652 Michael Walton          28  M  Colorado Springs     CO 1:02:00 1:01:56 0:08:36    2     
  47   42     3 M20-24 791 Malik Renner            23  M  Colorado Springs     CO 1:02:19 1:02:17 0:08:39          
  48   43     5 M45-49 411 Joe Miller              47  M  Colorado Springs     CO 1:02:46 1:02:39 0:08:42    7    Butternut Squashes 
  49   44     8 M50-54 371 Robert Little           50  M  Peyton               CO 1:02:49 1:02:42 0:08:43    13    
  50   45     4 M20-24 193 Gregory Dotseth         24  M  Colorado Springs     CO 1:02:47 1:02:44 0:08:43    6     
  51   46     5 M15-19 816 Jacob Otero             17  M  Colorado Springs     CO 1:02:47 1:02:44 0:08:43    1    Lost Friends 
  52   47     5 M30-34  45 Piotr Bartkow           32  M  Colorado Springs     CO 1:02:59 1:02:49 0:08:43    2     
  53   48     9 M50-54 349 Robbie Keyser           51  M  Colorado Springs     CO 1:02:59 1:02:52 0:08:44    8     
  54   49     1 M55-59  16 Tim Allison             58  M  Colorado Springs     CO 1:02:58 1:02:54 0:08:44    36    
  55   50     6 M45-49 127 Rob Cashell             49  M  Colorado Springs     CO 1:03:02 1:02:57 0:08:45    3     
  56   51     7 M45-49 351 Nathaniel Kisergreen    49  M  Colorado Springs     CO 1:03:07 1:03:01 0:08:45    29    
  57   52     8 M35-39 339 Craig Kaufmann          39  M  Colorado Springs     CO 1:03:13 1:03:07 0:08:46    2    Beer Pressure 
  59   53     7 M40-44 164 Jeff Courtright         40  M  Colorado Springs     CO 1:03:19 1:03:13 0:08:47    2    Beer Pressure 
  60   54     8 M40-44 435 Jason Nunnery           42  M  Colorado Springs     CO 1:03:24 1:03:17 0:08:47    2     
  61   55     8 M45-49  81 David Bloomfield        49  M  Colorado Springs     CO 1:03:26 1:03:22 0:08:48    18   Rusted Runners 
  62   56     8 M25-29 703 Nathan Middlebrook      28  M  Colorado Springs     CO 1:03:57 1:03:44 0:08:51          
  63   57     1 M60-64 794 Scott Trimboli          60  M  Colorado Springs     CO 1:03:53 1:03:46 0:08:51    11    
  64   58     2 M55-59 208 Alex Escarcega          55  M  Peyton               CO 1:04:15 1:04:11 0:08:55    13    
  65   59     6 M30-34 171 Stephen Cucchiara       32  M  Colorado Springs     CO 1:04:25 1:04:21 0:08:56    2    Red Leg 
  66   60     5 M20-24 651 Luke Walton             24  M  Colorado Springs     CO 1:04:27 1:04:23 0:08:57    2     

OPlc GPlc AGPlc AGrp   Bib Name                   Age Sex City                 St Gun     Chip    Pace    NumPrev TeamName                     
  67   61     7 M30-34 618 John Skolout            31  M  Colorado Springs     CO 1:05:22 1:05:17 0:09:04    3     
  68   62     9 M35-39 416 John Mohr               37  M  Colorado Springs     CO 1:05:44 1:05:39 0:09:07    6     
  69   63     3 M55-59 579 Tom Seeman              57  M  Colorado Springs     CO 1:05:46 1:05:41 0:09:07    6     
  70   64     9 M25-29 817 Evan Bays               26  M  Sedalia              CO 1:09:07 1:05:58 0:09:10    1     
  72   65    10 M35-39 573 David Schultz Jr        35  M  Colorado Springs     CO 1:07:16 1:07:00 0:09:18    1     
  73   66    11 M35-39 352 Daniel Kitchie          35  M  Colorado Springs     CO 1:07:21 1:07:11 0:09:20    2     
  74   67     9 M40-44 323 Timothy Jardeleza       42  M  Colorado Springs     CO 1:07:20 1:07:15 0:09:20    7     
  75   68    12 M35-39  37 James Baginski          37  M  Colorado Springs     CO 1:07:34 1:07:18 0:09:21    2    Earth Thinkers 
  76   69    10 M25-29 815 Ian Sugg                27  M  Colorado Springs     CO 1:07:39 1:07:22 0:09:21    1    Brass Brewing 
  77   70    11 M25-29 373 Aaron Lubelski          26  M  Colorado Springs     CO 1:07:32 1:07:27 0:09:22    6     
  78   71    10 M40-44 722 George Rus              42  M  Colorado Springs     CO 1:08:01 1:07:51 0:09:25          
  81   72    12 M25-29 102 Zachary Brown           26  M  Colorado Springs     CO 1:08:29 1:08:15 0:09:29    1     
  82   73    10 M50-54 542 John Sacco              51  M  Colorado Springs     CO 1:09:08 1:08:49 0:09:33    10   SAAKI 
  85   74     9 M45-49 780 David Elliott           48  M  Colorado Springs     CO 1:09:17 1:09:11 0:09:37          
  87   75     2 M60-64 664 Al Wegner               61  M  Colorado Springs     CO 1:09:31 1:09:27 0:09:39    2     
  88   76    11 M40-44 152 Robert Comstock         44  M  Colorado Springs     CO 1:09:59 1:09:49 0:09:42    14    
  89   77    12 M40-44 598 Andy Shawver            44  M  Colorado Springs     CO 1:10:10 1:10:03 0:09:44    26    
  91   78    13 M35-39 782 Luke Graham             36  M  Colorado Springs     CO 1:10:18 1:10:16 0:09:46          
  93   79    10 M45-49 808 Ross Hadley             48  M  Peyton               CO 1:10:41 1:10:29 0:09:47          
  94   80    14 M35-39 536 Joe Rozak               38  M  Colorado Springs     CO 1:11:07 1:10:51 0:09:50    10    

OPlc GPlc AGPlc AGrp   Bib Name                   Age Sex City                 St Gun     Chip    Pace    NumPrev TeamName                     
  96   81     1 M65-69 553 Michael Schenk          66  M  Colorado Springs     CO 1:11:18 1:11:14 0:09:54    44    
  97   82    11 M45-49 357 Kevin Komassa           45  M  Colorado Springs     CO 1:11:28 1:11:17 0:09:54    9     
  98   83    15 M35-39 701 Nicholas Lee            39  M  Colorado Springs     CO 1:11:54 1:11:33 0:09:56    2     
  99   84    16 M35-39  57 Daniel Bay              35  M  Colorado Springs     CO 1:11:43 1:11:36 0:09:57    2    Beer Pressure 
 100   85    12 M45-49 120 Ryan Can                46  M  Colorado Springs     CO 1:11:52 1:11:40 0:09:57    3     
 104   86    17 M35-39  75 Keith Blessing          39  M  Colorado Springs     CO 1:12:35 1:12:17 0:10:02    15   SAAKI 
 105   87     2 M65-69 493 Bernie Redlinger        69  M  Colorado Springs     CO 1:12:24 1:12:20 0:10:03    2     
 107   88     8 M30-34 788 Nick McNabb             32  M  Colorado Springs     CO 1:13:00 1:12:40 0:10:06          
 108   89    13 M40-44 186 Darryl Deighton         44  M  Colorado Springs     CO 1:12:55 1:12:42 0:10:06    5     
 109   90    13 M45-49  24 Ruben Anaya             46  M  Colorado Springs     CO 1:13:06 1:12:54 0:10:08    6     
 111   91     4 M55-59 793 David Sheldon           56  M  Colorado Springs     CO 1:13:28 1:13:19 0:10:11    3     
 112   92    14 M45-49 117 Stephen Camacho         49  M  Colorado Springs     CO 1:13:30 1:13:22 0:10:11    17    
 113   93     3 M60-64 596 Louie Serna             62  M  Colorado Springs     CO 1:13:55 1:13:40 0:10:14    21    
 117   94    14 M40-44 595 Darren Serna            40  M  Colorado Springs     CO 1:14:53 1:14:37 0:10:22    10    
 118   95     5 M55-59 431 Kevin Murdock           55  M  Colorado Springs     CO 1:14:49 1:14:41 0:10:22    1     
 119   96    11 M50-54 623 Peter Solie             53  M  Colorado Springs     CO 1:15:18 1:15:00 0:10:25    8    SAAKI 
 121   97     6 M55-59 212 Michael Everson         55  M  Colorado Springs     CO 1:15:10 1:15:07 0:10:26    26   Jurasskicked 
 123   98    15 M45-49 330 Jeremy Joiner           45  M  Colorado Springs     CO 1:15:38 1:15:10 0:10:26    41   Herd of Nerds 
 124   99     3 M65-69 444 Richard Park            66  M  Colorado Springs     CO 1:15:24 1:15:19 0:10:28    33    
 125  100     7 M55-59 427 David Mulligan          58  M  Colorado Springs     CO 1:15:46 1:15:38 0:10:30    19    

OPlc GPlc AGPlc AGrp   Bib Name                   Age Sex City                 St Gun     Chip    Pace    NumPrev TeamName                     
 126  101    16 M45-49 810 Troy McCubbin           46  M  Colorado Springs     CO 1:16:02 1:15:46 0:10:31          
 127  102     9 M30-34 400 Sean McGrath            32  M  Colorado Springs     CO 1:16:11 1:15:55 0:10:33    9     
 130  103    17 M45-49 566 Ben Schultz             49  M  Colorado Springs     CO 1:16:32 1:16:12 0:10:35    2     
 131  104    15 M40-44 681 Chris Young             41  M  Colorado Springs     CO 1:16:25 1:16:12 0:10:35    9     
 133  105    10 M30-34  43 Bryan Balliett          30  M  Colorado Springs     CO 1:16:39 1:16:32 0:10:38    6    Butternut Squashes 
 137  106    11 M30-34 575 Lincoln Scott           30  M  Colorado Springs     CO 1:17:06 1:16:51 0:10:40    6     
 138  107    12 M30-34 116 Winslow Cady            32  M  Colorado Springs     CO 1:17:58 1:16:56 0:10:41    2     
 140  108    12 M50-54 630 Shawn Sturm             52  M  Colorado Springs     CO 1:17:13 1:17:01 0:10:42    8     
 143  109    13 M50-54 308 John Hilyard            50  M  Colorado Springs     CO 1:18:29 1:18:09 0:10:51    27   AltiDudes 2.0 
 145  110     8 M55-59 748 Ken Trousdale           57  M  Peyton               CO 1:18:38 1:18:16 0:10:52    10    
 146  111    18 M45-49 418 Robert Moose            48  M  Colorado Springs     CO 1:18:36 1:18:18 0:10:53    12    
 149  112    14 M50-54  62 Gregory Beckum          51  M  Divide               CO 1:18:49 1:18:29 0:10:54    13   AltiDudes 2.0 
 151  113    15 M50-54 622 Will Snyder             54  M  Colorado Springs     CO 1:19:13 1:18:42 0:10:56    9     
 152  114     4 M65-69 638 Mark Toupin             65  M  Colorado Springs     CO 1:18:47 1:18:44 0:10:56    2     
 154  115    16 M50-54 650 Gregg Walsh             53  M  Colorado Springs     CO 1:19:14 1:18:51 0:10:57    5     
 156  116    18 M35-39 226 Dave Fitzjarrell        37  M  Colorado Springs     CO 1:19:21 1:18:59 0:10:58    3     
 157  117     9 M55-59 523 Robert Ronas            55  M  Divide               CO 1:19:08 1:19:03 0:10:59    63    
 159  118    19 M45-49 499 John Rettig             49  M  Colorado Springs     CO 1:19:34 1:19:19 0:11:01    2     
 160  119    19 M35-39 784 Adam Hertel             39  M  Colorado Springs     CO 1:19:49 1:19:22 0:11:01    2     
 161  120    17 M50-54 300 Chuck Herbst            51  M  Colorado Springs     CO 1:19:56 1:19:40 0:11:04    14    

OPlc GPlc AGPlc AGrp   Bib Name                   Age Sex City                 St Gun     Chip    Pace    NumPrev TeamName                     
 163  121    10 M55-59 196 Michael Dotseth         57  M  Colorado Springs     CO 1:20:12 1:19:53 0:11:06    5     
 164  122     4 M60-64 789 Jim Newton              62  M  Colorado Springs     CO 1:20:04 1:19:53 0:11:06    27    
 165  123    11 M55-59 539 Jim Rudolph             57  M  Colorado Springs     CO 1:20:13 1:20:06 0:11:08    10   SAAKI 
 166  124    12 M55-59 588 Larry Seidman           56  M  Colorado Springs     CO 1:20:40 1:20:20 0:11:09    54   Team Rosco 
 167  125    20 M35-39 512 Bruce Robinson          37  M  Colorado Springs     CO 1:20:50 1:20:25 0:11:10    2     
 168  126    13 M30-34 668 William Weldon          30  M  Colorado Springs     CO 1:20:34 1:20:28 0:11:11    2     
 169  127    13 M55-59 401 Eric McNeil             58  M  Colorado Springs     CO 1:20:56 1:20:29 0:11:11    43   Herd of Nerds 
 171  128    14 M55-59 250 Kenneth Grace           56  M  Colorado Springs     CO 1:21:17 1:20:48 0:11:13    2    AltiDudes 2.0 
 172  129     5 M65-69 286 Craig Hayes             67  M  Colorado Springs     CO 1:20:59 1:20:50 0:11:14    9     
 173  130    13 M25-29 770 Michael Zowada          27  M  Colorado Springs     CO 1:21:24 1:20:51 0:11:14          
 174  131    21 M35-39 249 Kevin Glaspie           37  M  Colorado Springs     CO 1:21:14 1:20:55 0:11:14    4     
 175  132    18 M50-54 366 Michael Leonard         53  M  Colorado Springs     CO 1:21:49 1:21:13 0:11:17    2     
 177  133    14 M30-34 242 Julian Garduno          34  M  Colorado Springs     CO 1:21:49 1:21:21 0:11:18    2     
 178  134    20 M45-49 369 Steve Lincoln           48  M  Colorado Springs     CO 1:21:46 1:21:26 0:11:19    4     
 180  135    15 M55-59 611 Stephen A Shumway       59  M  Colorado Springs     CO 1:22:05 1:21:47 0:11:22    4     
 183  136    16 M55-59 637 Peter A. Tonsits        57  M  Colorado Springs     CO 1:22:22 1:22:03 0:11:24    73   SAAKI 
 185  137    16 M40-44 422 Kristofr Morgan         43  M  Colorado Springs     CO 1:22:29 1:22:16 0:11:26    2     
 186  138    17 M40-44 516 Oliver Robinson         41  M  Colorado Springs     CO 1:22:46 1:22:25 0:11:27    2     
 192  139     5 M60-64 743 Eric Thomas             64  M  Colorado Springs     CO 1:24:18 1:23:49 0:11:38    22    
 193  140    14 M25-29 813 Lucas Mynsberge         29  M  Colorado Springs     CO 1:24:27 1:23:49 0:11:38          

OPlc GPlc AGPlc AGrp   Bib Name                   Age Sex City                 St Gun     Chip    Pace    NumPrev TeamName                     
 196  141    18 M40-44 675 David Williams          41  M  Colorado Springs     CO 1:24:39 1:24:00 0:11:40    18    
 204  142    22 M35-39  68 Michael Berlin          36  M  Denver               CO 1:24:49 1:24:42 0:11:46    13    
 206  143     1 M70-74 546 Stephen Sager           72  M  Colorado Springs     CO 1:25:13 1:25:02 0:11:49    49    
 211  144     6 M65-69  69 Marcus Beyerle          67  M  Colorado Springs     CO 1:26:22 1:25:46 0:11:55    14    
 213  145    19 M50-54 532 Walter Roy              52  M  Colorado Springs     CO 1:26:30 1:26:01 0:11:57    11   SAAKI 
 214  146    23 M35-39 634 Joshua Thomas           37  M  Colorado Springs     CO 1:26:28 1:26:02 0:11:57    26    
 218  147    20 M50-54  96 Scott Brooks            54  M  Manitou Springs      CO 1:26:55 1:26:29 0:12:01    14    
 219  148     2 M70-74 662 Darrell Weaver          73  M  Colorado Springs     CO 1:26:41 1:26:29 0:12:01    56    
 220  149    19 M40-44 624 Justin Spurlin          41  M  Colorado Springs     CO 1:27:36 1:27:11 0:12:07    6     
 225  150    21 M45-49 433 Joy Nandi               48  M  Colorado Springs     CO 1:28:48 1:28:21 0:12:16    6    Mordedcai 
 235  151     3 M70-74  61 Jim Beckenhaupt         72  M  Colorado Springs     CO 1:29:06 1:28:54 0:12:21    68    
 243  152    21 M50-54 470 Paul Perea              53  M  Pueblo               CO 1:31:07 1:30:33 0:12:35    1    SAAKI 
 247  153    17 M55-59 255 Ed Gritters             55  M  Colorado Springs     CO 1:31:29 1:31:07 0:12:39    41    
 249  154    15 M30-34 814 Carlos Pimentel         34  M  Colorado Springs     CO 1:32:22 1:31:28 0:12:42          
 252  155    18 M55-59 108 Kenneth Buckey          57  M  Colorado Springs     CO 1:32:24 1:32:08 0:12:48    9     
 253  156    16 M30-34 468 Aaron Paul              33  M  Colorado Springs     CO 1:32:58 1:32:21 0:12:50    10    
 258  157    19 M55-59 601 Stuart Shelton          57  M  Colorado Springs     CO 1:33:42 1:33:08 0:12:56    14    
 261  158    22 M45-49 203 Greg Earhart            48  M  Colorado Springs     CO 1:35:20 1:34:37 0:13:08    2     
 265  159    20 M40-44  28 Stephan Archer          43  M  Colorado Springs     CO 1:36:34 1:35:51 0:13:19    2     
 266  160     4 M70-74 355 Chuck Koehler           72  M  Colorado Springs     CO 1:36:24 1:35:59 0:13:20    10    

OPlc GPlc AGPlc AGrp   Bib Name                   Age Sex City                 St Gun     Chip    Pace    NumPrev TeamName                     
 270  161    17 M30-34 683 Jonathan Zinn           31  M  Colorado Springs     CO 1:36:55 1:36:26 0:13:24    6     
 274  162    20 M55-59 655 Breck Warner            55  M  Colorado Springs     CO 1:37:56 1:37:22 0:13:31    2     
 275  163    22 M50-54 275 Bill Hallam             54  M  Colorado Springs     CO 1:37:56 1:37:23 0:13:32    8     
 277  164    21 M55-59 368 Rory Lewis              58  M  Colorado Springs     CO 1:37:48 1:37:40 0:13:34    8     
 286  165    22 M55-59 632 David Sweetman          57  M  Colorado Springs     CO 1:39:40 1:39:19 0:13:48    11    
 287  166     6 M15-19  76 Alexander Bliss         17  M  Colorado Springs     CO 1:41:25 1:40:35 0:13:58    5     
 289  167    23 M50-54 143 Randall Coan            53  M  Colorado Springs     CO 1:41:45 1:41:01 0:14:02    14   Atrevida 
 296  168    23 M45-49 192 David Divine            49  M  Colorado Springs     CO 1:42:24 1:41:54 0:14:09    15    
 300  169    24 M50-54 667 Christopher Welch       51  M  Palmer Lake          CO 1:43:04 1:42:33 0:14:15    4     
 301  170     1 M80-84  29 Glen Ash                82  M  Colorado Springs     CO 1:43:01 1:42:47 0:14:17    10    
 303  171    24 M35-39 534 Benjamin Royall         39  M  Colorado Springs     CO 1:43:17 1:42:51 0:14:17    2     
 305  172    23 M55-59 790 Carlos Perez            56  M  Colorado Springs     CO 1:44:18 1:43:30 0:14:23    1     
 306  173    25 M35-39 382 Logan Maldonado         37  M  Colorado Springs     CO 1:44:19 1:43:35 0:14:23    2     
 308  174     7 M65-69 168 John Crouse             69  M  Monument             CO 1:44:28 1:43:46 0:14:25    13    
 309  175    26 M35-39 806 Michael Wilkinson       38  M  Colorado Springs     CO 1:44:56 1:44:07 0:14:28          
 310  176    24 M45-49 359 Adam Kosofsky           46  M  Woodland Park        CO 1:44:47 1:44:34 0:14:31    5     
 311  177     5 M70-74 306 Vance Hewuse            73  M  Colorado Springs     CO 1:45:20 1:44:40 0:14:32    11    
 320  178    25 M50-54 200 James Driscoll          52  M  Falcon               CO 1:47:14 1:46:51 0:14:50    17    
 324  179    24 M55-59 310 Robert Holsworth        58  M  Peyton               CO 1:48:57 1:48:12 0:15:02    10    
 329  180    25 M55-59 407 Joseph Mendygral        57  M  Colorado Springs     CO 1:50:46 1:50:12 0:15:18    26    

OPlc GPlc AGPlc AGrp   Bib Name                   Age Sex City                 St Gun     Chip    Pace    NumPrev TeamName                     
 331  181    27 M35-39 188 Gaetan Delavignette     38  M  Colorado Springs     CO 1:51:44 1:51:10 0:15:26    5     
 333  182     6 M60-64 726 Robert Smith            62  M  Washington           DC 1:51:49 1:51:21 0:15:28    8     
 337  183     7 M15-19 236 Jerrod Gallup           15  M  Colorado Springs     CO 1:53:29 1:52:47 0:15:40    2     
 338  184     2 M80-84 804 Bill Moyle              80  M  Long Tree            CO 1:54:16 1:53:26 0:15:45          
 339  185    26 M50-54 128 John Cassidy            54  M  Colorado Springs     CO 1:55:57 1:55:05 0:15:59    45    
 344  186    27 M50-54 530 Donovan Routsis         50  M  Peyton               CO 1:58:51 1:57:59 0:16:23    2    Black Forest Brewing Company 
 346  187     1 M75-79 645 John Vomastic           76  M  Manitou Springs      CO 2:04:03 2:03:15 0:17:07    10    
 353  188     8 M15-19 386 Justin Marshall         18  M  Colorado Springs     CO 2:13:50 2:13:00 0:18:28    2     
 355  189    28 M50-54 342 Kraig Keller            53  M  Colorado Springs     CO 2:13:51 2:13:19 0:18:31    13    
 356  190    25 M45-49  78 B. Jay Bliss            46  M  Colorado Springs     CO 2:14:45 2:13:54 0:18:36    6     
 358  191    29 M50-54 649 Sam Waller              52  M  Colorado Springs     CO 2:14:48 2:13:57 0:18:36    2     
 359  192    30 M50-54 235 Jeff Gallup             54  M  Colorado Springs     CO 2:14:53 2:14:11 0:18:38    22